Etusivu
METAR-TAF:

METAR-TAF

Lentoasemat :

Vilnan lentoasema

Vilna, Liettua

Leveyspiiri: 54-38N, Pituuspiiri: 025-06E, korkeus merenpinnasta: 162 m

Tämänhetkinen sää

Tämä raportti tehtiin 28 minuuttia sitten, kello 17.50 UTC
Tuuli 11 kn etelästä/lounaasta
Lämpötila -1°C
Kosteus 86%
Ilmanpaine 1014 hPa
Näkyvyys: 8000 m
Hajanaisia pilviä 2200 ft:n korkeudessa

METAR: EYVI 051750Z 21011KT 8000 SCT022 M01/M03 Q1014 R19/2///95 NOSIG

Aika: 20:18 (18:18 UTC)

Sääennuste

Tämä raportti tehtiin 1 tunti ja 11 minuuttia sitten, kello 17.07 UTC
Ennuste voimassa 05. päivästä klo 18 UTC - 06. päivään klo 18 UTC
Tuuli 12 kn etelästä/lounaasta
Näkyvyys: 6000 m
Ajoittain
05. päivästä klo 18 UTC - 06. päivään klo 03 UTC
Näkyvyys: 3000 m
Hajanaisia pilviä 300 ft:n korkeudessa
utua
Tulossa
06. päivästä klo 12 UTC - 06. päivään klo 14 UTC
Pilvistä 2000 ft:n korkeudessa

TAF: EYVI 051707Z 0518/0618 20012KT 6000 NSC TEMPO 0518/0603 3000 BR SCT003 BECMG 0612/0614 OVC020

Säähavainnot ja -ennusteet yli 4000 lentoasemalta (METAR- ja TAF-raportit).

Käytössä olevat sääasemat on merkitty karttaan keltaisilla ja punaisilla pisteillä.

Aseta hiiri pisteen päälle nähdäksesi sääaseman nimen.

Klikkaa sitten nähdäksesi säähavainnot ja -ennusteet.

Kartan vaihtaminen: klikkaa mustalla rastilla varustettuja vihreitä pisteitä, niin voit zoomata sisään; viivalla varustettua vihreää pistettä, niin voit zoomata ulos tai vihreitä nuolia, niin pääset viereisille kartoille.


METAR-TAF: